Time;durP1;ratioP1;P1;durP2;ratioP2;P2;SDS_P1;SDS_P2;PMS_P1;PMS_P2;Temp;Humidity;BMP_temperature;BMP_pressure;BME280_temperature;BME280_humidity;BME280_pressure;Samples;Min_cycle;Max_cycle;Signal;HPM_P1;HPM_P2
2022/03/24 00:01:51;;;;;;;46.50;24.13;;;10.60;99.90;;;;;;5044799;28;20239;-84
2022/03/24 00:04:17;;;;;;;55.75;24.52;;;10.30;99.90;;;;;;5046303;28;20203;-80
2022/03/24 00:06:43;;;;;;;49.67;22.98;;;10.30;99.90;;;;;;5043038;28;20187;-87
2022/03/24 00:09:08;;;;;;;46.90;24.40;;;10.20;99.90;;;;;;5036513;28;20171;-82
2022/03/24 00:11:34;;;;;;;60.25;25.45;;;10.40;99.90;;;;;;5036284;28;20187;-84
2022/03/24 00:14:00;;;;;;;49.60;26.42;;;10.50;99.90;;;;;;5036227;28;20203;-86
2022/03/24 00:16:26;;;;;;;53.63;25.90;;;10.50;99.90;;;;;;5036136;28;20233;-85
2022/03/24 00:18:52;;;;;;;50.85;25.05;;;10.50;99.90;;;;;;5035775;28;20529;-86
2022/03/24 00:21:18;;;;;;;55.95;24.88;;;10.50;99.90;;;;;;5035820;28;20273;-87
2022/03/24 00:23:44;;;;;;;54.42;25.08;;;10.50;99.90;;;;;;5036461;28;20208;-87
2022/03/24 00:26:10;;;;;;;58.50;26.80;;;10.40;99.90;;;;;;5036520;28;20186;-87
2022/03/24 00:28:35;;;;;;;57.38;24.73;;;10.40;99.90;;;;;;5036884;28;20279;-88
2022/03/24 00:31:02;;;;;;;48.28;25.20;;;10.30;99.90;;;;;;5036125;28;20663;-86
2022/03/24 00:33:28;;;;;;;55.03;26.85;;;10.40;99.90;;;;;;5035698;28;20168;-84
2022/03/24 00:35:54;;;;;;;48.13;23.50;;;10.20;99.90;;;;;;5036293;28;20160;-87
2022/03/24 00:38:20;;;;;;;53.33;25.08;;;10.00;99.90;;;;;;5035613;28;20188;-87
2022/03/24 00:40:45;;;;;;;40.83;23.58;;;10.00;99.90;;;;;;5017367;28;20644;-86
2022/03/24 00:43:12;;;;;;;53.35;26.10;;;10.10;99.90;;;;;;5035450;28;20622;-83
2022/03/24 00:45:40;;;;;;;47.83;24.77;;;10.10;99.90;;;;;;5035498;28;20259;-85
2022/03/24 00:48:07;;;;;;;49.97;24.60;;;9.90;99.90;;;;;;5035301;28;20217;-81
2022/03/24 00:50:35;;;;;;;54.17;27.23;;;9.90;99.90;;;;;;5036923;28;20254;-85
2022/03/24 00:53:02;;;;;;;41.60;24.35;;;9.90;99.90;;;;;;5035527;28;20187;-86
2022/03/24 00:55:28;;;;;;;53.10;26.20;;;9.90;99.90;;;;;;5035987;28;20203;-85
2022/03/24 00:57:54;;;;;;;64.60;25.33;;;9.90;99.90;;;;;;5035737;28;20301;-84
2022/03/24 01:00:25;;;;;;;45.50;24.40;;;9.70;99.90;;;;;;5035496;28;20156;-78
2022/03/24 01:02:52;;;;;;;65.55;25.20;;;9.70;99.90;;;;;;5035318;28;20196;-85
2022/03/24 01:05:23;;;;;;;48.53;25.92;;;9.80;99.90;;;;;;5035896;28;20168;-86
2022/03/24 01:07:49;;;;;;;55.35;26.23;;;10.00;99.90;;;;;;5035423;28;20188;-87
2022/03/24 01:10:17;;;;;;;63.85;25.08;;;10.00;99.90;;;;;;5035877;28;20191;-87
2022/03/24 01:12:43;;;;;;;62.72;27.35;;;10.10;99.90;;;;;;5035322;28;20168;-79
2022/03/24 01:15:10;;;;;;;58.22;24.67;;;9.90;99.90;;;;;;5035351;28;20286;-86
2022/03/24 01:17:37;;;;;;;57.20;26.00;;;9.90;99.90;;;;;;5035056;28;20191;-81
2022/03/24 01:20:04;;;;;;;55.83;24.90;;;9.90;99.90;;;;;;5035082;28;20175;-80
2022/03/24 01:22:29;;;;;;;51.88;25.73;;;9.70;99.90;;;;;;5030345;28;20210;-77
2022/03/24 01:24:56;;;;;;;48.88;25.50;;;9.70;99.90;;;;;;5051907;28;20200;-82
2022/03/24 01:27:25;;;;;;;49.90;25.38;;;9.60;99.90;;;;;;5031994;28;20203;-84
2022/03/24 01:29:51;;;;;;;41.78;22.50;;;9.70;99.90;;;;;;5042187;28;20222;-84
2022/03/24 01:32:18;;;;;;;45.15;23.42;;;9.70;99.90;;;;;;5040659;28;20168;-85
2022/03/24 01:34:45;;;;;;;55.42;24.58;;;9.60;99.90;;;;;;5051033;28;20162;-85
2022/03/24 01:37:11;;;;;;;49.03;27.13;;;9.70;99.90;;;;;;5051349;28;20184;-85
2022/03/24 01:39:37;;;;;;;43.85;23.08;;;9.40;99.90;;;;;;5051358;28;20168;-83
2022/03/24 01:42:04;;;;;;;53.15;24.15;;;9.20;99.90;;;;;;5049025;28;20167;-80
2022/03/24 01:44:29;;;;;;;43.17;23.77;;;9.30;99.90;;;;;;5036412;28;20214;-85
2022/03/24 01:47:05;;;;;;;57.38;24.13;;;9.30;99.90;;;;;;5036397;28;20550;-84
2022/03/24 01:49:37;;;;;;;48.28;25.25;;;9.40;99.90;;;;;;5035206;28;20624;-77
2022/03/24 01:52:07;;;;;;;38.85;23.52;;;9.40;99.90;;;;;;5034490;28;20253;-84
2022/03/24 01:54:33;;;;;;;53.63;23.90;;;9.40;99.90;;;;;;5034493;28;20164;-78
2022/03/24 01:57:01;;;;;;;43.03;23.95;;;9.30;99.90;;;;;;5034440;28;20577;-83
2022/03/24 01:59:27;;;;;;;46.33;25.27;;;9.30;99.90;;;;;;5037301;28;20219;-80
2022/03/24 02:01:54;;;;;;;40.40;23.27;;;9.30;99.90;;;;;;5034447;28;20156;-84
2022/03/24 02:04:20;;;;;;;42.35;24.92;;;9.30;99.90;;;;;;5034686;28;20256;-86
2022/03/24 02:06:46;;;;;;;40.08;24.00;;;9.50;99.90;;;;;;5036023;28;20195;-84
2022/03/24 02:09:13;;;;;;;44.13;23.90;;;9.30;99.90;;;;;;5042734;28;20254;-86
2022/03/24 02:11:39;;;;;;;44.63;24.90;;;9.10;99.90;;;;;;5036035;28;20673;-85
2022/03/24 02:14:05;;;;;;;51.40;24.92;;;9.00;99.90;;;;;;5038208;28;20310;-86
2022/03/24 02:16:38;;;;;;;40.60;23.40;;;9.00;99.90;;;;;;5035885;28;20215;-86
2022/03/24 02:19:18;;;;;;;50.35;25.00;;;9.10;99.90;;;;;;5036882;28;20172;-87
2022/03/24 02:21:45;;;;;;;61.88;23.38;;;9.20;99.90;;;;;;5035773;28;20592;-86
2022/03/24 02:24:13;;;;;;;50.55;26.08;;;9.00;99.90;;;;;;5035385;28;20283;-86
2022/03/24 02:26:40;;;;;;;48.40;24.45;;;8.90;99.90;;;;;;5035426;28;20187;-84
2022/03/24 02:29:07;;;;;;;47.25;25.42;;;8.80;99.90;;;;;;5035266;28;20171;-85
2022/03/24 02:31:38;;;;;;;45.92;24.25;;;8.80;99.90;;;;;;5035150;28;20263;-85
2022/03/24 02:36:49;;;;;;;41.08;24.33;;;8.60;99.90;;;;;;5034472;28;20202;-86
2022/03/24 02:39:16;;;;;;;47.08;23.63;;;8.80;99.90;;;;;;5017473;28;20163;-86
2022/03/24 02:41:52;;;;;;;43.65;22.65;;;8.90;99.90;;;;;;5034614;28;20688;-86
2022/03/24 02:44:20;;;;;;;63.50;25.25;;;8.90;99.90;;;;;;5034667;28;20562;-87
2022/03/24 02:46:49;;;;;;;51.95;25.67;;;8.80;99.90;;;;;;5035384;28;20238;-83
2022/03/24 02:49:22;;;;;;;43.45;24.33;;;8.70;99.90;;;;;;5035225;28;20191;-86
2022/03/24 02:51:49;;;;;;;44.70;23.92;;;8.60;99.90;;;;;;5035748;28;20174;-80
2022/03/24 02:54:15;;;;;;;47.70;24.73;;;8.60;99.90;;;;;;5035349;28;20621;-85
2022/03/24 02:56:42;;;;;;;48.63;25.67;;;8.50;99.90;;;;;;5034814;28;20190;-86
2022/03/24 02:59:08;;;;;;;41.47;23.35;;;8.60;99.90;;;;;;5035204;28;20200;-87
2022/03/24 03:01:34;;;;;;;46.00;24.40;;;8.50;99.90;;;;;;5035418;28;20167;-86
2022/03/24 03:04:00;;;;;;;42.80;22.80;;;8.40;99.90;;;;;;5020274;28;20219;-82
2022/03/24 03:06:26;;;;;;;45.70;25.33;;;8.30;99.90;;;;;;5038739;28;20233;-84
2022/03/24 03:08:52;;;;;;;48.38;25.25;;;8.40;99.90;;;;;;5038809;28;20186;-85
2022/03/24 03:11:22;;;;;;;44.38;23.10;;;8.50;99.90;;;;;;5038625;28;20163;-86
2022/03/24 03:13:51;;;;;;;46.50;25.30;;;8.50;99.90;;;;;;5038967;28;20175;-83
2022/03/24 03:16:17;;;;;;;46.53;26.00;;;8.40;99.90;;;;;;5038173;28;20250;-79
2022/03/24 03:18:42;;;;;;;46.20;24.40;;;8.40;99.90;;;;;;5038382;28;20218;-83
2022/03/24 03:21:09;;;;;;;63.78;26.95;;;8.30;99.90;;;;;;5038630;28;20160;-87
2022/03/24 03:23:38;;;;;;;54.42;24.52;;;8.30;99.90;;;;;;5038144;28;20286;-86
2022/03/24 03:26:08;;;;;;;42.95;24.77;;;8.10;99.90;;;;;;5037813;28;20168;-85
2022/03/24 03:28:34;;;;;;;45.65;24.83;;;8.20;99.90;;;;;;5048104;28;20175;-80
2022/03/24 03:31:00;;;;;;;48.80;25.88;;;8.10;99.90;;;;;;5058925;28;20183;-81
2022/03/24 03:33:26;;;;;;;49.50;25.55;;;8.20;99.90;;;;;;5047938;28;20255;-79
2022/03/24 03:35:52;;;;;;;45.47;23.08;;;8.30;99.90;;;;;;5037739;28;20302;-80
2022/03/24 03:38:18;;;;;;;45.58;23.40;;;8.20;99.90;;;;;;5037554;28;20321;-81
2022/03/24 03:40:45;;;;;;;50.80;25.23;;;8.20;99.90;;;;;;5037557;28;20597;-83
2022/03/24 03:43:11;;;;;;;40.05;23.88;;;8.30;99.90;;;;;;5019486;28;20699;-82
2022/03/24 03:45:37;;;;;;;41.80;24.55;;;8.30;99.90;;;;;;5036976;28;20245;-82
2022/03/24 03:48:03;;;;;;;51.15;25.23;;;8.30;99.90;;;;;;5037112;28;20299;-82
2022/03/24 03:50:29;;;;;;;46.50;25.02;;;8.30;99.90;;;;;;5037412;28;20168;-79
2022/03/24 03:52:54;;;;;;;49.22;23.35;;;8.10;99.90;;;;;;5037217;28;20628;-84
2022/03/24 03:55:20;;;;;;;43.13;23.70;;;8.10;99.90;;;;;;5037297;28;20164;-87
2022/03/24 03:57:46;;;;;;;55.92;26.20;;;8.10;99.90;;;;;;5020832;28;20199;-85
2022/03/24 04:02:58;;;;;;;48.67;24.60;;;7.90;99.90;;;;;;5036125;28;20229;-84
2022/03/24 04:05:25;;;;;;;51.33;25.48;;;7.90;99.90;;;;;;5036782;28;20581;-84
2022/03/24 04:07:52;;;;;;;53.53;26.65;;;7.70;99.90;;;;;;5036802;28;20219;-85
2022/03/24 04:10:17;;;;;;;47.05;25.25;;;7.70;99.90;;;;;;5037006;28;20601;-87
2022/03/24 04:12:43;;;;;;;51.75;26.63;;;7.90;99.90;;;;;;5036544;28;20196;-84
2022/03/24 04:15:10;;;;;;;51.63;25.98;;;8.00;99.90;;;;;;5036435;28;20172;-85
2022/03/24 04:17:36;;;;;;;53.17;26.80;;;7.90;99.90;;;;;;5036478;28;20183;-85
2022/03/24 04:20:02;;;;;;;52.60;25.60;;;7.90;99.90;;;;;;5037221;28;20168;-87
2022/03/24 04:22:27;;;;;;;50.30;25.85;;;7.90;99.90;;;;;;5036281;28;20191;-78
2022/03/24 04:24:53;;;;;;;51.03;25.48;;;7.90;99.90;;;;;;5035444;28;20206;-81
2022/03/24 04:27:19;;;;;;;63.35;26.95;;;7.90;99.90;;;;;;5035809;28;20234;-78
2022/03/24 04:29:44;;;;;;;49.25;26.20;;;7.90;99.90;;;;;;5036054;28;20194;-85
2022/03/24 04:32:10;;;;;;;58.42;26.50;;;7.90;99.90;;;;;;5018024;28;20270;-81
2022/03/24 04:34:36;;;;;;;70.03;29.75;;;7.80;99.90;;;;;;5035854;28;20164;-80
2022/03/24 04:37:02;;;;;;;68.35;25.67;;;7.70;99.90;;;;;;5035749;28;20188;-79
2022/03/24 04:39:29;;;;;;;40.55;22.88;;;7.60;99.90;;;;;;5038430;28;20210;-79
2022/03/24 04:41:55;;;;;;;51.67;27.05;;;7.50;99.90;;;;;;5035929;28;20156;-79
2022/03/24 04:44:22;;;;;;;49.13;26.40;;;7.70;99.90;;;;;;5035968;28;20203;-80
2022/03/24 04:46:48;;;;;;;46.13;24.35;;;7.60;99.90;;;;;;5036367;28;20184;-81
2022/03/24 04:49:14;;;;;;;42.35;24.48;;;7.60;99.90;;;;;;5036040;28;20584;-79
2022/03/24 04:51:41;;;;;;;45.55;24.88;;;7.60;99.90;;;;;;5037001;28;20194;-83
2022/03/24 04:54:08;;;;;;;48.88;23.85;;;7.70;99.90;;;;;;5035969;28;20195;-83
2022/03/24 04:56:33;;;;;;;51.85;25.42;;;7.70;99.90;;;;;;5036162;28;20188;-79
2022/03/24 04:58:59;;;;;;;53.65;27.05;;;7.80;99.90;;;;;;5018662;28;20183;-79
2022/03/24 05:01:25;;;;;;;45.58;25.05;;;7.90;99.90;;;;;;5036079;28;20164;-83
2022/03/24 05:03:50;;;;;;;51.20;25.23;;;7.90;99.90;;;;;;5035503;28;20250;-86
2022/03/24 05:06:17;;;;;;;54.70;24.48;;;7.80;99.90;;;;;;5035884;28;20521;-85
2022/03/24 05:08:42;;;;;;;51.70;24.70;;;7.70;99.90;;;;;;5035872;28;20164;-85
2022/03/24 05:11:08;;;;;;;66.72;26.50;;;7.70;99.90;;;;;;5035902;28;20234;-81
2022/03/24 05:13:34;;;;;;;47.55;25.00;;;7.70;99.90;;;;;;5035557;28;20160;-78
2022/03/24 05:15:59;;;;;;;48.47;24.98;;;7.80;99.90;;;;;;5035423;28;20168;-85
2022/03/24 05:18:25;;;;;;;45.92;23.98;;;7.90;99.90;;;;;;5035145;28;20191;-85
2022/03/24 05:20:51;;;;;;;57.45;24.77;;;7.80;99.90;;;;;;5035508;28;20644;-85
2022/03/24 05:23:17;;;;;;;55.78;26.40;;;7.70;99.90;;;;;;5035160;28;20690;-79
2022/03/24 05:25:48;;;;;;;46.20;23.83;;;7.70;99.90;;;;;;5034510;28;20160;-86
2022/03/24 05:28:15;;;;;;;45.78;24.75;;;7.50;99.90;;;;;;5035767;28;20195;-78
2022/03/24 05:30:42;;;;;;;48.55;23.63;;;7.60;99.90;;;;;;5049972;28;20187;-86
2022/03/24 05:33:08;;;;;;;58.10;25.10;;;7.30;99.90;;;;;;5056605;28;20159;-82
2022/03/24 05:35:35;;;;;;;55.97;26.00;;;7.10;99.90;;;;;;5039938;28;20172;-84
2022/03/24 05:38:05;;;;;;;55.75;26.52;;;7.20;99.90;;;;;;5035327;28;20238;-77
2022/03/24 05:40:31;;;;;;;47.33;24.40;;;7.30;99.90;;;;;;5035517;28;20178;-78
2022/03/24 05:42:57;;;;;;;42.28;23.55;;;7.40;99.90;;;;;;5035328;28;20168;-82
2022/03/24 05:45:23;;;;;;;50.47;26.33;;;7.50;99.90;;;;;;5035196;28;20256;-84
2022/03/24 05:47:48;;;;;;;50.55;27.45;;;7.60;99.90;;;;;;5037615;28;20230;-86
2022/03/24 05:50:14;;;;;;;56.08;26.77;;;7.70;99.90;;;;;;5017073;28;20175;-82
2022/03/24 05:52:40;;;;;;;53.40;26.63;;;7.70;99.90;;;;;;5016611;28;20214;-81
2022/03/24 05:55:07;;;;;;;59.42;28.25;;;7.90;99.90;;;;;;5016962;28;20185;-84
2022/03/24 05:57:32;;;;;;;52.63;26.27;;;7.70;99.90;;;;;;5034662;28;20203;-86
2022/03/24 05:59:58;;;;;;;47.13;27.42;;;7.50;99.90;;;;;;5040694;28;20529;-86
2022/03/24 06:02:25;;;;;;;54.58;26.85;;;7.60;99.90;;;;;;5033091;28;20156;-86
2022/03/24 06:04:54;;;;;;;56.72;29.77;;;7.50;99.90;;;;;;5032061;28;20210;-85
2022/03/24 06:07:19;;;;;;;55.17;27.13;;;7.80;99.90;;;;;;5053648;28;20168;-82
2022/03/24 06:09:45;;;;;;;54.05;26.58;;;8.00;99.90;;;;;;5022591;28;20633;-80
2022/03/24 06:12:12;;;;;;;50.60;27.08;;;8.10;99.90;;;;;;5037561;28;20160;-79
2022/03/24 06:14:39;;;;;;;54.42;27.35;;;8.00;99.90;;;;;;5036453;28;20152;-84
2022/03/24 06:17:06;;;;;;;58.08;27.33;;;8.10;99.90;;;;;;5040091;28;20191;-79
2022/03/24 06:19:35;;;;;;;58.17;27.33;;;8.20;99.90;;;;;;5047597;28;20164;-84
2022/03/24 06:22:02;;;;;;;57.20;28.33;;;8.20;99.90;;;;;;5032449;28;20179;-78
2022/03/24 06:24:33;;;;;;;49.30;26.92;;;8.40;99.90;;;;;;5049283;28;20216;-86
2022/03/24 06:26:59;;;;;;;50.47;25.85;;;8.40;99.90;;;;;;5034190;28;20699;-82
2022/03/24 06:29:25;;;;;;;51.35;27.02;;;8.30;99.90;;;;;;5034739;28;20221;-86
2022/03/24 06:31:50;;;;;;;60.55;27.48;;;8.20;99.90;;;;;;5035689;28;20227;-81
2022/03/24 06:34:16;;;;;;;60.30;26.58;;;8.30;99.90;;;;;;5039131;28;20180;-83
2022/03/24 06:36:42;;;;;;;50.50;26.27;;;8.40;99.90;;;;;;5022799;28;20200;-80
2022/03/24 06:39:09;;;;;;;70.25;29.63;;;8.50;99.90;;;;;;5021757;28;20643;-86
2022/03/24 06:41:38;;;;;;;61.60;30.50;;;8.60;99.90;;;;;;5047172;28;20182;-84
2022/03/24 06:44:06;;;;;;;51.67;27.40;;;8.80;99.90;;;;;;5021193;28;20211;-82
2022/03/24 06:46:32;;;;;;;60.30;27.45;;;8.90;99.90;;;;;;5033817;28;20198;-80
2022/03/24 06:48:59;;;;;;;65.85;29.00;;;8.90;99.90;;;;;;5033280;28;20294;-85
2022/03/24 06:51:25;;;;;;;72.88;29.25;;;9.00;99.90;;;;;;5033305;28;20503;-85
2022/03/24 06:53:51;;;;;;;66.10;28.05;;;8.90;99.90;;;;;;5033363;28;20274;-79
2022/03/24 06:56:17;;;;;;;64.18;28.38;;;9.10;99.90;;;;;;5033041;28;20172;-80
2022/03/24 06:58:43;;;;;;;56.60;29.23;;;9.30;99.90;;;;;;5032965;28;20236;-80
2022/03/24 07:01:10;;;;;;;61.75;30.02;;;9.20;99.90;;;;;;5015433;28;20654;-81
2022/03/24 07:03:36;;;;;;;60.83;28.25;;;9.30;99.90;;;;;;5033112;28;20201;-81
2022/03/24 07:06:02;;;;;;;50.63;27.67;;;9.40;99.90;;;;;;5033433;28;20175;-79
2022/03/24 07:08:28;;;;;;;50.50;26.70;;;9.60;99.90;;;;;;5032833;28;20607;-84
2022/03/24 07:10:53;;;;;;;61.25;28.85;;;9.70;99.90;;;;;;5033021;28;20199;-80
2022/03/24 07:13:20;;;;;;;62.60;27.95;;;9.80;99.90;;;;;;5032569;28;20168;-83
2022/03/24 07:15:45;;;;;;;55.10;27.88;;;9.90;99.90;;;;;;5032954;28;20250;-80
2022/03/24 07:18:11;;;;;;;61.08;31.58;;;9.90;99.90;;;;;;5033196;28;20592;-80
2022/03/24 07:20:37;;;;;;;53.10;27.63;;;10.00;99.90;;;;;;5032966;28;20175;-82
2022/03/24 07:23:03;;;;;;;53.90;28.15;;;10.20;99.90;;;;;;5032596;28;20160;-82
2022/03/24 07:25:33;;;;;;;65.93;29.58;;;10.30;99.90;;;;;;5032437;28;20164;-78
2022/03/24 07:27:59;;;;;;;51.67;28.85;;;10.40;99.90;;;;;;5014826;28;20226;-77
2022/03/24 07:30:26;;;;;;;67.60;29.65;;;10.50;99.90;;;;;;5032457;28;20573;-78
2022/03/24 07:32:54;;;;;;;70.53;31.83;;;10.60;99.90;;;;;;5032859;28;20218;-79
2022/03/24 07:35:21;;;;;;;63.20;31.30;;;10.70;99.90;;;;;;5032680;28;20247;-77
2022/03/24 07:37:48;;;;;;;76.00;31.17;;;10.80;99.90;;;;;;5032945;28;20518;-81
2022/03/24 07:40:18;;;;;;;71.95;30.65;;;10.90;99.90;;;;;;5023488;28;20256;-83
2022/03/24 07:42:44;;;;;;;67.75;31.27;;;10.90;99.90;;;;;;5042222;28;20171;-80
2022/03/24 07:45:11;;;;;;;83.85;32.30;;;11.10;99.90;;;;;;5034431;28;20204;-86
2022/03/24 07:48:12;;;;;;;81.65;31.27;;;11.20;99.90;;;;;;5037871;28;20211;-80
2022/03/24 07:50:40;;;;;;;59.92;31.38;;;11.20;99.90;;;;;;5068145;28;20177;-80
2022/03/24 07:53:19;;;;;;;64.90;34.03;;;11.40;99.90;;;;;;5064408;28;20159;-80
2022/03/24 07:55:46;;;;;;;63.20;33.30;;;11.60;99.90;;;;;;5052824;28;20183;-84
2022/03/24 07:58:13;;;;;;;63.25;33.72;;;11.70;99.90;;;;;;5035717;28;20249;-80
2022/03/24 08:00:39;;;;;;;61.22;32.90;;;11.80;99.90;;;;;;5036374;28;20250;-82
2022/03/24 08:03:13;;;;;;;63.70;34.00;;;11.90;99.90;;;;;;5036244;28;20167;-88
2022/03/24 08:05:39;;;;;;;87.72;37.03;;;12.00;99.90;;;;;;5036703;28;20186;-80
2022/03/24 08:08:05;;;;;;;86.53;36.33;;;12.10;99.90;;;;;;5018682;28;20188;-86
2022/03/24 08:10:31;;;;;;;76.38;36.75;;;12.20;99.90;;;;;;5043952;28;20254;-86
2022/03/24 08:12:56;;;;;;;97.05;39.25;;;12.40;99.90;;;;;;5036504;28;20188;-88
2022/03/24 08:15:23;;;;;;;72.00;38.17;;;12.50;99.90;;;;;;5036335;28;20172;-83
2022/03/24 08:17:49;;;;;;;74.60;38.00;;;12.70;99.90;;;;;;5035789;28;20180;-82
2022/03/24 08:20:15;;;;;;;76.25;37.10;;;12.90;99.90;;;;;;5024259;28;20171;-82
2022/03/24 08:22:41;;;;;;;80.57;38.28;;;13.00;99.90;;;;;;5055780;28;20187;-81
2022/03/24 08:25:09;;;;;;;81.72;38.40;;;13.10;99.90;;;;;;5056511;28;20230;-83
2022/03/24 08:27:35;;;;;;;74.47;39.08;;;13.20;99.90;;;;;;5054975;28;20175;-81
2022/03/24 08:30:04;;;;;;;95.68;39.80;;;13.40;99.90;;;;;;5054473;28;20191;-79
2022/03/24 08:32:29;;;;;;;75.90;38.30;;;13.60;99.90;;;;;;5054831;28;20187;-79
2022/03/24 08:34:55;;;;;;;84.88;39.45;;;13.80;99.90;;;;;;5036432;28;20218;-79
2022/03/24 08:37:20;;;;;;;80.43;39.10;;;13.90;99.90;;;;;;5054264;28;20213;-78
2022/03/24 08:39:47;;;;;;;75.45;38.38;;;14.10;99.90;;;;;;5054789;28;20186;-79
2022/03/24 08:42:12;;;;;;;79.65;38.35;;;14.30;99.90;;;;;;5055116;28;20687;-82
2022/03/24 08:44:38;;;;;;;81.05;38.35;;;14.40;99.90;;;;;;5053342;28;20290;-79
2022/03/24 08:47:05;;;;;;;82.03;41.13;;;14.60;99.90;;;;;;5055056;28;20187;-81
2022/03/24 08:49:31;;;;;;;75.47;37.80;;;14.70;99.90;;;;;;5037597;28;20171;-79
2022/03/24 08:51:57;;;;;;;74.78;38.10;;;14.80;99.90;;;;;;5046875;28;20241;-79
2022/03/24 08:54:23;;;;;;;76.43;38.42;;;14.80;99.90;;;;;;5055587;28;20164;-86
2022/03/24 08:56:48;;;;;;;81.13;39.63;;;15.00;99.90;;;;;;5054626;28;20189;-79
2022/03/24 08:59:14;;;;;;;82.85;40.20;;;15.10;99.90;;;;;;5055477;28;20164;-83
2022/03/24 09:01:43;;;;;;;76.10;40.28;;;15.30;99.90;;;;;;5060317;28;20176;-82
2022/03/24 09:04:10;;;;;;;72.88;38.30;;;15.50;99.90;;;;;;5058553;28;20206;-87
2022/03/24 09:06:39;;;;;;;84.35;39.17;;;15.50;99.90;;;;;;5054621;28;20190;-83
2022/03/24 09:09:05;;;;;;;89.47;39.78;;;15.50;99.90;;;;;;5055344;28;20194;-86
2022/03/24 09:11:31;;;;;;;83.38;38.95;;;15.50;99.90;;;;;;5055320;28;20167;-79
2022/03/24 09:13:57;;;;;;;76.82;38.45;;;15.60;99.90;;;;;;5054372;28;20179;-88
2022/03/24 09:16:23;;;;;;;81.32;38.20;;;15.80;99.90;;;;;;5055852;28;20853;-79
2022/03/24 09:18:49;;;;;;;72.85;36.92;;;16.00;99.90;;;;;;5019180;28;20176;-78
2022/03/24 09:21:16;;;;;;;88.53;38.58;;;16.10;99.90;;;;;;5033851;28;20168;-78
2022/03/24 09:23:42;;;;;;;68.55;35.38;;;16.30;99.90;;;;;;5049036;28;20539;-79
2022/03/24 09:26:08;;;;;;;57.95;31.67;;;16.10;99.40;;;;;;5052793;28;20176;-78
2022/03/24 09:28:34;;;;;;;61.67;32.15;;;16.10;98.50;;;;;;5030621;28;20211;-79
2022/03/24 09:31:00;;;;;;;66.10;32.80;;;16.20;98.20;;;;;;5057534;28;20231;-79
2022/03/24 09:33:28;;;;;;;51.50;30.10;;;16.10;97.80;;;;;;5045587;28;20171;-80
2022/03/24 09:35:54;;;;;;;56.40;31.30;;;16.10;97.40;;;;;;5015406;28;20748;-78
2022/03/24 09:38:20;;;;;;;64.03;29.55;;;15.90;98.30;;;;;;5058080;28;20179;-79
2022/03/24 09:40:46;;;;;;;61.83;29.38;;;16.10;97.40;;;;;;5058569;28;20632;-79
2022/03/24 09:43:15;;;;;;;62.50;28.30;;;16.10;97.50;;;;;;5058571;28;20173;-79
2022/03/24 09:45:42;;;;;;;64.68;28.27;;;16.30;97.00;;;;;;5059069;28;20175;-82
2022/03/24 09:48:10;;;;;;;49.40;27.05;;;16.20;97.00;;;;;;5056580;28;20295;-80
2022/03/24 09:50:37;;;;;;;47.15;26.27;;;16.30;96.90;;;;;;5047035;28;20167;-80
2022/03/24 09:53:05;;;;;;;50.40;22.25;;;16.20;96.70;;;;;;5047258;28;20207;-82
2022/03/24 09:55:36;;;;;;;42.42;23.65;;;16.50;95.60;;;;;;5039944;28;20259;-82
2022/03/24 09:58:02;;;;;;;42.85;22.23;;;16.80;95.60;;;;;;5046419;28;20198;-85
2022/03/24 10:00:28;;;;;;;45.33;21.15;;;16.80;95.20;;;;;;5052796;28;20254;-79
2022/03/24 10:03:09;;;;;;;43.13;22.48;;;16.90;94.70;;;;;;5048398;28;20294;-81
2022/03/24 10:05:35;;;;;;;44.10;20.67;;;17.00;94.20;;;;;;5034544;28;20194;-81
2022/03/24 10:08:06;;;;;;;50.90;22.55;;;16.90;92.90;;;;;;5053337;28;20186;-79
2022/03/24 10:10:34;;;;;;;49.45;24.70;;;16.90;93.10;;;;;;5054759;28;20200;-79
2022/03/24 10:13:01;;;;;;;45.10;20.52;;;16.80;94.10;;;;;;5058815;28;20179;-79
2022/03/24 10:15:28;;;;;;;44.83;21.02;;;16.80;93.40;;;;;;5052248;28;20227;-77
2022/03/24 10:17:56;;;;;;;43.72;21.25;;;16.80;93.80;;;;;;5043669;28;20587;-80
2022/03/24 10:20:26;;;;;;;42.60;22.80;;;16.90;93.10;;;;;;5033734;28;20164;-80
2022/03/24 10:23:00;;;;;;;50.63;21.65;;;17.00;92.90;;;;;;5037724;28;20171;-81
2022/03/24 10:25:28;;;;;;;49.80;24.23;;;17.00;92.50;;;;;;5039120;28;20233;-82
2022/03/24 10:28:04;;;;;;;48.38;22.27;;;16.90;93.00;;;;;;5040426;28;20527;-81
2022/03/24 10:30:48;;;;;;;45.80;23.08;;;17.00;93.30;;;;;;5063342;28;20201;-83
2022/03/24 10:33:36;;;;;;;42.25;21.88;;;17.10;93.60;;;;;;5064617;28;20167;-80
2022/03/24 10:36:10;;;;;;;50.95;24.55;;;17.20;92.80;;;;;;5064263;28;20163;-78
2022/03/24 10:38:39;;;;;;;53.35;25.05;;;17.20;92.60;;;;;;5033242;28;20679;-80
2022/03/24 10:41:22;;;;;;;50.50;26.25;;;17.30;93.00;;;;;;5039903;28;20199;-79
2022/03/24 10:43:49;;;;;;;51.65;27.67;;;17.30;92.20;;;;;;5032567;28;20245;-78
2022/03/24 10:46:18;;;;;;;49.80;25.95;;;17.10;91.80;;;;;;5032435;28;20171;-78
2022/03/24 10:48:47;;;;;;;52.38;24.70;;;17.20;91.80;;;;;;5043998;28;20175;-80
2022/03/24 10:51:41;;;;;;;48.45;26.08;;;17.00;92.50;;;;;;5042694;28;20178;-86
2022/03/24 10:54:12;;;;;;;47.15;25.90;;;17.10;91.20;;;;;;5032917;28;20167;-83
2022/03/24 10:56:52;;;;;;;52.70;27.65;;;17.30;92.10;;;;;;5038829;28;20547;-79
2022/03/24 10:59:18;;;;;;;55.30;27.73;;;17.30;92.60;;;;;;5051412;28;20171;-86
2022/03/24 11:01:46;;;;;;;57.33;26.35;;;17.50;92.40;;;;;;5053088;28;20645;-82
2022/03/24 11:04:13;;;;;;;52.75;26.88;;;17.50;91.80;;;;;;5046771;28;20663;-83
2022/03/24 11:06:51;;;;;;;53.92;27.92;;;17.40;91.60;;;;;;5041124;28;20187;-80
2022/03/24 11:09:25;;;;;;;71.88;28.15;;;17.50;91.50;;;;;;5051777;28;20190;-78
2022/03/24 11:12:22;;;;;;;62.78;28.10;;;17.60;91.70;;;;;;5022881;28;20175;-84
2022/03/24 11:14:50;;;;;;;51.00;25.42;;;17.70;91.60;;;;;;5032766;28;20214;-78
2022/03/24 11:17:17;;;;;;;49.30;24.67;;;17.70;90.10;;;;;;5032537;28;20180;-87
2022/03/24 11:19:54;;;;;;;48.75;24.40;;;17.60;90.10;;;;;;5032710;28;20652;-83
2022/03/24 11:22:21;;;;;;;47.70;25.35;;;17.40;90.20;;;;;;5037050;28;20206;-81
2022/03/24 11:24:47;;;;;;;47.47;25.42;;;17.30;90.40;;;;;;5049980;28;20215;-77
2022/03/24 11:27:13;;;;;;;43.90;23.98;;;17.30;89.60;;;;;;5036852;28;20265;-79
2022/03/24 11:29:40;;;;;;;46.83;23.98;;;17.40;88.50;;;;;;5035757;28;20176;-78
2022/03/24 11:32:08;;;;;;;46.60;23.50;;;17.60;89.70;;;;;;5035600;28;20160;-77
2022/03/24 11:34:34;;;;;;;44.95;24.80;;;17.60;89.00;;;;;;5035972;28;20230;-80
2022/03/24 11:37:01;;;;;;;37.58;23.63;;;17.50;88.10;;;;;;5035921;28;20191;-81
2022/03/24 11:39:27;;;;;;;47.22;26.30;;;17.40;88.50;;;;;;5034143;28;20215;-79
2022/03/24 11:41:55;;;;;;;66.75;23.98;;;17.40;89.40;;;;;;5035229;28;20203;-81
2022/03/24 11:44:39;;;;;;;48.20;26.05;;;17.40;88.00;;;;;;5035766;28;20204;-78
2022/03/24 11:47:13;;;;;;;57.58;23.35;;;17.50;88.40;;;;;;5035319;28;20179;-78
2022/03/24 11:49:40;;;;;;;47.67;25.27;;;17.50;88.10;;;;;;5037301;28;20179;-78
2022/03/24 11:52:05;;;;;;;47.70;25.77;;;17.80;88.40;;;;;;5055351;28;20167;-79
2022/03/24 11:54:40;;;;;;;52.67;26.50;;;17.90;87.70;;;;;;5055695;28;20214;-78
2022/03/24 11:57:35;;;;;;;53.63;28.40;;;17.90;88.30;;;;;;5049948;28;20588;-78
2022/03/24 12:00:13;;;;;;;58.55;27.77;;;18.00;89.40;;;;;;5024067;28;20657;-79
2022/03/24 12:02:39;;;;;;;53.10;28.08;;;18.20;89.70;;;;;;5055464;28;20196;-78
2022/03/24 12:05:05;;;;;;;53.67;27.50;;;18.20;90.70;;;;;;5037562;28;20207;-79
2022/03/24 12:07:31;;;;;;;58.38;29.17;;;18.20;90.00;;;;;;5055053;28;20187;-79
2022/03/24 12:10:11;;;;;;;58.42;27.60;;;18.30;89.00;;;;;;5054472;28;20182;-80
2022/03/24 12:12:38;;;;;;;65.55;26.92;;;17.90;90.30;;;;;;5055589;28;20163;-85
2022/03/24 12:15:24;;;;;;;60.15;28.20;;;17.90;89.70;;;;;;5055205;28;20175;-79
2022/03/24 12:18:07;;;;;;;47.72;26.15;;;17.90;90.30;;;;;;5034559;28;20250;-88
2022/03/24 12:20:46;;;;;;;52.80;24.20;;;17.80;88.10;;;;;;5031251;28;20608;-80
2022/03/24 12:23:12;;;;;;;56.60;26.92;;;17.70;87.20;;;;;;5056454;28;20249;-85
2022/03/24 12:25:39;;;;;;;47.33;24.17;;;17.50;87.50;;;;;;5055303;28;20653;-78
2022/03/24 12:28:22;;;;;;;46.75;23.92;;;17.50;87.20;;;;;;5055828;28;20277;-79
2022/03/24 12:30:58;;;;;;;50.97;23.67;;;17.60;86.70;;;;;;5055695;28;20547;-82
2022/03/24 12:33:35;;;;;;;54.63;24.95;;;17.70;85.40;;;;;;5055557;28;20224;-86
2022/03/24 12:36:02;;;;;;;53.03;24.35;;;17.90;84.90;;;;;;5054970;28;20644;-87
2022/03/24 12:38:43;;;;;;;44.95;25.63;;;17.90;83.50;;;;;;5055753;28;20193;-79
2022/03/24 12:41:09;;;;;;;57.17;25.92;;;17.80;83.70;;;;;;5058426;28;20178;-79